Time;durP1;ratioP1;P1;durP2;ratioP2;P2;SDS_P1;SDS_P2;PMS_P1;PMS_P2;Temp;Humidity;BMP_temperature;BMP_pressure;BME280_temperature;BME280_humidity;BME280_pressure;Samples;Min_cycle;Max_cycle;Signal;HPM_P1;HPM_P2
2022/05/03 00:01:55;;;;;;;16.05;14.27;;;6.80;99.90;;;;;;5046475;28;20102;-62
2022/05/03 00:04:43;;;;;;;16.95;15.10;;;6.80;99.90;;;;;;5046394;28;20478;-62
2022/05/03 00:07:34;;;;;;;17.13;13.77;;;6.70;99.90;;;;;;5051423;28;20041;-62
2022/05/03 00:10:03;;;;;;;17.20;13.18;;;6.40;99.90;;;;;;5052142;28;20037;-62
2022/05/03 00:12:41;;;;;;;17.92;13.60;;;6.70;99.90;;;;;;5051758;28;20044;-62
2022/05/03 00:15:08;;;;;;;18.92;14.00;;;6.50;99.90;;;;;;5051438;28;20037;-62
2022/05/03 00:17:34;;;;;;;16.20;13.43;;;;;;;;;;5050363;28;20045;-62
2022/05/03 00:20:01;;;;;;;15.00;13.35;;;6.70;99.90;;;;;;5052103;28;20118;-62
2022/05/03 00:22:28;;;;;;;18.17;14.43;;;6.40;99.90;;;;;;5051873;28;20130;-62
2022/05/03 00:24:55;;;;;;;16.25;12.32;;;6.70;99.90;;;;;;5051656;28;20047;-62
2022/05/03 00:27:26;;;;;;;16.42;12.23;;;6.70;99.90;;;;;;5052766;28;20045;-62
2022/05/03 00:29:53;;;;;;;18.23;12.68;;;6.50;99.90;;;;;;5051091;28;20044;-62
2022/05/03 00:32:26;;;;;;;15.65;12.63;;;6.50;99.90;;;;;;5052779;28;20049;-62
2022/05/03 00:34:53;;;;;;;14.52;12.60;;;6.60;99.90;;;;;;5052489;28;20569;-62
2022/05/03 00:37:19;;;;;;;30.15;11.85;;;7.00;99.90;;;;;;5050485;28;20048;-62
2022/05/03 00:39:45;;;;;;;14.90;12.52;;;6.90;99.90;;;;;;5052626;28;20041;-62
2022/05/03 00:42:34;;;;;;;18.20;12.85;;;6.60;99.90;;;;;;5051754;28;20395;-62
2022/05/03 00:45:14;;;;;;;14.88;12.35;;;6.60;99.90;;;;;;5052742;28;20107;-62
2022/05/03 00:47:54;;;;;;;16.10;12.15;;;6.50;99.90;;;;;;5051236;28;20048;-62
2022/05/03 00:50:47;;;;;;;15.32;11.13;;;6.50;99.90;;;;;;5050053;28;20506;-62
2022/05/03 00:53:25;;;;;;;14.18;11.68;;;6.50;99.90;;;;;;5034721;28;20382;-62
2022/05/03 00:56:30;;;;;;;14.85;10.75;;;6.40;99.90;;;;;;5046350;28;20049;-62
2022/05/03 00:59:04;;;;;;;14.35;11.40;;;6.40;99.90;;;;;;5051265;28;20049;-62
2022/05/03 01:01:50;;;;;;;14.07;11.18;;;6.30;99.90;;;;;;5031393;28;20046;-62
2022/05/03 01:04:41;;;;;;;14.60;12.38;;;6.30;99.90;;;;;;5051036;28;20052;-62
2022/05/03 01:07:35;;;;;;;14.48;11.93;;;6.40;99.90;;;;;;5065314;28;20049;-62
2022/05/03 01:10:20;;;;;;;15.13;10.80;;;6.30;99.90;;;;;;5052203;28;20032;-62
2022/05/03 01:12:46;;;;;;;;;;;6.30;99.90;;;;;;5029084;28;20037;-62
2022/05/03 01:15:19;;;;;;;13.90;9.57;;;6.20;99.90;;;;;;5050456;28;20365;-62
2022/05/03 01:18:14;;;;;;;13.23;10.63;;;6.20;99.90;;;;;;5049689;28;20501;-63
2022/05/03 01:20:54;;;;;;;14.40;11.50;;;6.20;99.90;;;;;;5050505;28;20516;-62
2022/05/03 01:23:32;;;;;;;15.07;10.93;;;6.20;99.90;;;;;;5052048;28;20036;-62
2022/05/03 01:26:34;;;;;;;13.98;10.40;;;6.20;99.90;;;;;;5051479;28;20040;-62
2022/05/03 01:29:14;;;;;;;14.95;11.65;;;6.20;99.90;;;;;;5050540;28;20045;-62
2022/05/03 01:31:41;;;;;;;15.18;11.98;;;6.10;99.90;;;;;;5033225;28;20033;-62
2022/05/03 01:34:10;;;;;;;14.27;10.45;;;6.10;99.90;;;;;;5052003;28;20041;-63
2022/05/03 01:36:50;;;;;;;12.43;10.48;;;6.10;99.90;;;;;;5050366;28;20037;-63
2022/05/03 01:39:37;;;;;;;13.30;9.50;;;6.10;99.90;;;;;;5049851;28;20103;-62
2022/05/03 01:42:58;;;;;;;14.98;9.80;;;6.10;99.90;;;;;;5052220;28;20116;-62
2022/05/03 01:45:31;;;;;;;14.25;10.68;;;6.10;99.90;;;;;;5015576;28;20140;-62
2022/05/03 01:48:09;;;;;;;14.38;11.05;;;6.10;99.90;;;;;;5050111;28;20100;-63
2022/05/03 01:50:43;;;;;;;17.02;11.82;;;6.30;99.90;;;;;;5050182;28;20120;-62
2022/05/03 01:53:35;;;;;;;13.60;10.93;;;6.30;99.90;;;;;;5046720;28;20042;-63
2022/05/03 01:56:15;;;;;;;14.52;10.68;;;6.40;99.90;;;;;;5033886;28;20045;-63
2022/05/03 01:59:18;;;;;;;14.20;11.77;;;6.50;99.90;;;;;;5014303;28;20065;-63
2022/05/03 02:01:59;;;;;;;14.85;12.52;;;6.50;99.90;;;;;;5048595;28;20102;-63
2022/05/03 02:04:55;;;;;;;16.13;11.13;;;6.60;99.90;;;;;;5049445;28;20512;-63
2022/05/03 02:07:21;;;;;;;17.90;12.55;;;6.50;99.90;;;;;;5049357;28;20517;-62
2022/05/03 02:10:12;;;;;;;21.08;14.48;;;6.80;99.90;;;;;;5047981;28;20040;-63
2022/05/03 02:12:44;;;;;;;17.45;13.82;;;7.00;99.90;;;;;;5049625;28;20482;-63
2022/05/03 02:15:13;;;;;;;17.33;13.23;;;7.00;99.90;;;;;;5051221;28;20044;-63
2022/05/03 02:18:16;;;;;;;21.10;13.70;;;7.10;99.90;;;;;;5051053;28;20563;-63
2022/05/03 02:21:08;;;;;;;21.63;14.93;;;7.00;99.90;;;;;;5042286;28;20056;-63
2022/05/03 02:23:56;;;;;;;19.67;15.20;;;7.00;99.90;;;;;;5049995;28;20049;-63
2022/05/03 02:26:33;;;;;;;20.35;14.68;;;7.10;99.90;;;;;;5051529;28;20448;-62
2022/05/03 02:29:15;;;;;;;18.40;14.00;;;7.10;99.90;;;;;;5049531;28;20045;-62
2022/05/03 02:31:44;;;;;;;22.15;14.55;;;7.20;99.90;;;;;;5051167;28;20401;-62
2022/05/03 02:34:23;;;;;;;22.02;15.88;;;7.20;99.90;;;;;;5050665;28;20037;-63
2022/05/03 02:37:10;;;;;;;21.92;15.32;;;7.30;99.90;;;;;;5049565;28;20044;-63
2022/05/03 02:39:41;;;;;;;21.27;14.68;;;7.40;99.90;;;;;;5033256;28;20041;-62
2022/05/03 02:42:09;;;;;;;22.75;16.63;;;7.50;99.90;;;;;;5052196;28;20044;-62
2022/05/03 02:44:37;;;;;;;20.58;15.70;;;7.50;99.90;;;;;;5053229;28;20052;-62
2022/05/03 02:47:11;;;;;;;21.58;15.57;;;7.50;99.90;;;;;;5049476;28;20444;-62
2022/05/03 02:49:55;;;;;;;25.60;16.67;;;7.60;99.90;;;;;;5053094;28;20116;-62
2022/05/03 02:52:59;;;;;;;21.88;16.65;;;7.60;99.90;;;;;;5053218;28;20041;-62
2022/05/03 02:55:50;;;;;;;22.00;16.75;;;7.70;99.90;;;;;;5034772;28;20132;-62
2022/05/03 02:58:54;;;;;;;34.10;17.02;;;7.70;99.90;;;;;;5032626;28;20033;-62
2022/05/03 03:01:47;;;;;;;23.27;16.20;;;7.70;99.90;;;;;;5050018;28;20056;-62
2022/05/03 03:04:34;;;;;;;23.77;16.52;;;7.80;99.90;;;;;;5046299;28;20171;-62
2022/05/03 03:07:02;;;;;;;21.50;16.00;;;8.00;99.90;;;;;;5032082;28;20055;-62
2022/05/03 03:09:43;;;;;;;18.60;14.48;;;7.80;99.90;;;;;;5033330;28;20042;-62
2022/05/03 03:12:28;;;;;;;20.80;15.10;;;7.90;99.90;;;;;;5033792;28;20532;-62
2022/05/03 03:15:07;;;;;;;24.45;15.10;;;7.90;99.90;;;;;;5034148;28;20044;-62
2022/05/03 03:17:38;;;;;;;20.95;15.43;;;8.00;99.90;;;;;;5031734;28;20132;-63
2022/05/03 03:20:11;;;;;;;20.98;15.27;;;8.00;99.90;;;;;;5034674;28;20045;-62
2022/05/03 03:22:39;;;;;;;23.40;15.80;;;8.00;99.90;;;;;;5033122;28;20052;-63
2022/05/03 03:25:06;;;;;;;23.95;17.00;;;8.10;99.90;;;;;;5032319;28;20490;-63
2022/05/03 03:27:33;;;;;;;21.65;15.70;;;8.10;99.90;;;;;;5016117;28;20403;-63
2022/05/03 03:30:02;;;;;;;20.55;16.73;;;7.90;99.90;;;;;;5032931;28;20048;-62
2022/05/03 03:32:27;;;;;;;24.17;16.52;;;8.10;99.90;;;;;;5015724;28;20116;-63
2022/05/03 03:34:55;;;;;;;19.55;15.13;;;8.20;99.90;;;;;;5034090;28;20600;-62
2022/05/03 03:37:45;;;;;;;19.23;15.18;;;8.30;99.90;;;;;;5015979;28;20128;-62
2022/05/03 03:40:13;;;;;;;22.75;16.42;;;8.20;99.90;;;;;;5033222;28;20041;-63
2022/05/03 03:42:40;;;;;;;22.20;16.50;;;8.30;99.90;;;;;;5032419;28;20184;-62
2022/05/03 03:45:07;;;;;;;24.05;17.17;;;8.20;99.90;;;;;;5016545;28;20166;-62
2022/05/03 03:47:37;;;;;;;23.58;17.23;;;8.20;99.90;;;;;;5032916;28;20041;-62
2022/05/03 03:50:04;;;;;;;21.88;15.98;;;8.40;99.90;;;;;;5032608;28;20048;-62
2022/05/03 03:52:31;;;;;;;23.60;17.88;;;8.30;99.90;;;;;;5043563;28;20628;-63
2022/05/03 03:54:57;;;;;;;21.92;16.05;;;9.60;99.90;;;;;;5052276;28;20109;-62
2022/05/03 03:57:24;;;;;;;19.85;15.82;;;8.30;99.90;;;;;;5053422;28;20448;-62
2022/05/03 03:59:50;;;;;;;24.67;18.95;;;8.30;99.90;;;;;;5051402;28;20064;-62
2022/05/03 04:02:16;;;;;;;22.23;18.15;;;8.40;99.90;;;;;;5053376;28;20041;-62
2022/05/03 04:04:43;;;;;;;22.85;17.92;;;8.40;99.90;;;;;;5035069;28;20470;-62
2022/05/03 04:07:09;;;;;;;25.77;18.63;;;8.30;99.90;;;;;;5051453;28;20037;-62
2022/05/03 04:09:35;;;;;;;25.02;18.98;;;7.00;99.90;;;;;;5051477;28;20071;-62
2022/05/03 04:12:02;;;;;;;23.60;16.80;;;8.70;99.90;;;;;;5035499;28;20037;-63
2022/05/03 04:14:29;;;;;;;23.85;18.25;;;8.50;99.90;;;;;;5052418;28;20059;-62
2022/05/03 04:16:55;;;;;;;29.63;19.85;;;8.70;99.90;;;;;;5053068;28;20057;-63
2022/05/03 04:19:21;;;;;;;24.33;18.50;;;9.00;99.90;;;;;;5052938;28;20037;-63
2022/05/03 04:21:47;;;;;;;30.08;21.77;;;8.90;99.90;;;;;;5050838;28;20448;-63
2022/05/03 04:24:13;;;;;;;29.38;20.58;;;;;;;;;;5035048;28;20045;-62
2022/05/03 04:26:39;;;;;;;28.08;19.75;;;8.60;99.90;;;;;;5051770;28;20409;-62
2022/05/03 04:29:05;;;;;;;30.20;19.58;;;8.70;99.90;;;;;;5034377;28;20045;-62
2022/05/03 04:31:35;;;;;;;25.40;19.42;;;9.10;99.90;;;;;;5052345;28;20045;-62
2022/05/03 04:34:03;;;;;;;33.13;23.80;;;8.80;99.90;;;;;;5051684;28;20037;-62
2022/05/03 04:36:29;;;;;;;28.50;21.05;;;;;;;;;;5051775;28;20078;-63
2022/05/03 04:38:55;;;;;;;30.27;20.55;;;;;;;;;;5052957;28;20049;-62
2022/05/03 04:41:22;;;;;;;31.15;20.63;;;;;;;;;;5052525;28;20379;-63
2022/05/03 04:43:48;;;;;;;25.75;20.20;;;;;;;;;;5033793;28;20040;-62
2022/05/03 04:46:14;;;;;;;32.38;22.65;;;;;;;;;;5034742;28;20520;-62
2022/05/03 04:48:40;;;;;;;29.88;21.42;;;;;;;;;;5033779;28;20037;-63
2022/05/03 04:51:17;;;;;;;30.20;20.83;;;;;;;;;;5051568;28;20052;-62
2022/05/03 04:53:43;;;;;;;31.95;22.27;;;;;;;;;;5051322;28;20087;-62
2022/05/03 04:56:15;;;;;;;32.40;23.88;;;;;;;;;;5034103;28;20044;-62
2022/05/03 04:58:41;;;;;;;33.60;22.20;;;9.30;99.90;;;;;;5047280;28;20032;-62
2022/05/03 05:01:06;;;;;;;28.15;20.80;;;9.30;99.90;;;;;;5052357;28;20396;-62
2022/05/03 05:03:32;;;;;;;28.80;21.00;;;9.40;99.90;;;;;;5049621;28;20045;-62
2022/05/03 05:05:57;;;;;;;30.35;22.20;;;9.30;99.90;;;;;;5051220;28;20128;-62
2022/05/03 05:08:23;;;;;;;29.23;22.70;;;;;;;;;;5050743;28;20052;-63
2022/05/03 05:10:50;;;;;;;31.70;23.27;;;;;;;;;;5050049;28;20044;-63
2022/05/03 05:13:16;;;;;;;33.95;22.83;;;;;;;;;;5052099;28;20099;-62
2022/05/03 05:15:42;;;;;;;36.55;24.55;;;;;;;;;;5050550;28;20474;-63
2022/05/03 05:18:08;;;;;;;33.78;24.95;;;;;;;;;;5050465;28;20441;-62
2022/05/03 05:20:34;;;;;;;37.53;25.05;;;9.60;99.90;;;;;;5052016;28;20052;-62
2022/05/03 05:22:59;;;;;;;35.35;25.17;;;9.50;99.90;;;;;;5051308;28;20044;-62
2022/05/03 05:25:25;;;;;;;39.67;24.55;;;9.60;99.90;;;;;;5049902;28;20041;-62
2022/05/03 05:27:51;;;;;;;37.58;22.80;;;9.60;99.90;;;;;;5051694;28;20049;-62
2022/05/03 05:30:17;;;;;;;37.40;25.35;;;9.60;99.90;;;;;;5050733;28;20052;-62
2022/05/03 05:32:42;;;;;;;34.45;22.90;;;9.60;99.90;;;;;;5050973;28;20033;-62
2022/05/03 05:35:08;;;;;;;33.55;21.75;;;9.70;99.90;;;;;;5051169;28;20130;-62
2022/05/03 05:37:34;;;;;;;24.73;15.75;;;9.70;99.90;;;;;;5050272;28;20041;-62
2022/05/03 05:40:00;;;;;;;18.65;12.88;;;10.20;99.90;;;;;;5051212;28;20044;-62
2022/05/03 05:42:28;;;;;;;17.67;12.73;;;9.80;99.90;;;;;;5050545;28;20041;-62
2022/05/03 05:44:54;;;;;;;22.45;9.80;;;9.80;99.90;;;;;;5050866;28;20486;-62
2022/05/03 05:47:20;;;;;;;18.95;9.73;;;9.80;99.90;;;;;;5051546;28;20043;-62
2022/05/03 05:49:46;;;;;;;20.38;10.25;;;9.80;99.90;;;;;;5051713;28;20099;-62
2022/05/03 05:54:55;;;;;;;18.00;9.65;;;9.80;99.90;;;;;;5051004;28;20397;-62
2022/05/03 05:57:21;;;;;;;21.50;9.63;;;9.80;99.90;;;;;;5051689;28;20032;-62
2022/05/03 05:59:47;;;;;;;23.00;9.10;;;9.80;99.90;;;;;;5049976;28;20041;-63
2022/05/03 06:02:14;;;;;;;27.17;9.57;;;9.80;99.90;;;;;;5050349;28;20045;-62
2022/05/03 06:04:40;;;;;;;15.52;7.65;;;9.80;99.90;;;;;;5050399;28;20037;-62
2022/05/03 06:07:06;;;;;;;27.50;7.50;;;9.80;99.90;;;;;;5049748;28;20452;-62
2022/05/03 06:09:33;;;;;;;15.25;6.85;;;9.70;99.90;;;;;;5051194;28;20041;-62
2022/05/03 06:11:59;;;;;;;16.08;8.10;;;9.70;99.90;;;;;;5050487;28;20075;-62
2022/05/03 06:14:24;;;;;;;17.30;7.85;;;9.70;99.90;;;;;;5050497;28;20119;-62
2022/05/03 06:16:55;;;;;;;16.92;7.38;;;9.60;99.90;;;;;;5053950;28;20049;-63
2022/05/03 06:19:21;;;;;;;20.38;8.45;;;9.60;99.90;;;;;;5053999;28;20084;-62
2022/05/03 06:21:48;;;;;;;27.38;7.88;;;9.60;99.90;;;;;;5054576;28;20064;-62
2022/05/03 06:24:14;;;;;;;15.30;7.40;;;9.50;99.90;;;;;;5055168;28;20040;-62
2022/05/03 06:26:40;;;;;;;20.40;7.78;;;9.50;99.90;;;;;;5055156;28;20041;-62
2022/05/03 06:29:08;;;;;;;18.40;6.55;;;9.50;99.90;;;;;;5053262;28;20102;-63
2022/05/03 06:31:39;;;;;;;26.40;7.82;;;9.50;99.90;;;;;;5054879;28;20047;-62
2022/05/03 06:34:05;;;;;;;19.77;7.88;;;9.50;99.90;;;;;;5053523;28;20071;-62
2022/05/03 06:36:31;;;;;;;10.82;6.15;;;9.50;99.90;;;;;;5070253;28;20041;-62
2022/05/03 06:38:56;;;;;;;19.38;7.88;;;9.50;99.90;;;;;;5053702;28;20051;-62
2022/05/03 06:41:22;;;;;;;18.90;7.70;;;9.40;99.90;;;;;;5053066;28;20119;-63
2022/05/03 06:43:48;;;;;;;24.92;7.50;;;9.50;99.90;;;;;;5054006;28;20037;-62
2022/05/03 06:46:14;;;;;;;20.40;8.48;;;9.50;99.90;;;;;;5054853;28;20041;-62
2022/05/03 06:48:39;;;;;;;16.25;7.05;;;9.50;99.90;;;;;;5052513;28;20045;-62
2022/05/03 06:51:06;;;;;;;19.73;6.53;;;9.50;99.90;;;;;;5035627;28;20046;-63
2022/05/03 06:53:33;;;;;;;16.02;6.65;;;9.50;99.90;;;;;;5047180;28;20545;-62
2022/05/03 06:55:58;;;;;;;14.45;5.72;;;9.50;99.90;;;;;;5036044;28;20056;-63
2022/05/03 06:58:24;;;;;;;17.08;6.10;;;9.50;99.90;;;;;;5054780;28;20049;-63
2022/05/03 07:00:50;;;;;;;19.40;7.60;;;9.60;99.90;;;;;;5053362;28;20049;-63
2022/05/03 07:03:19;;;;;;;14.13;5.05;;;9.60;99.90;;;;;;5052373;28;20120;-63
2022/05/03 07:05:45;;;;;;;12.15;5.03;;;9.60;99.90;;;;;;5053141;28;20049;-63
2022/05/03 07:08:11;;;;;;;16.85;5.53;;;9.60;99.90;;;;;;5050060;28;20041;-63
2022/05/03 07:10:37;;;;;;;13.43;4.95;;;9.60;99.90;;;;;;5050816;28;20044;-63
2022/05/03 07:13:04;;;;;;;11.32;4.75;;;9.90;99.90;;;;;;5067402;28;20041;-63
2022/05/03 07:15:30;;;;;;;12.90;4.93;;;9.90;99.90;;;;;;5049974;28;20048;-63
2022/05/03 07:23:26;;;;;;;27.98;5.95;;;9.70;99.90;;;;;;5030998;28;20053;-63
2022/05/03 07:25:52;;;;;;;14.00;4.28;;;9.70;99.90;;;;;;5032389;28;20573;-63
2022/05/03 07:28:18;;;;;;;12.27;5.20;;;9.80;99.90;;;;;;5048022;28;20076;-63
2022/05/03 07:30:43;;;;;;;16.05;3.90;;;9.80;99.90;;;;;;5050354;28;20120;-63
2022/05/03 07:33:09;;;;;;;13.55;4.60;;;9.80;99.90;;;;;;5051554;28;20037;-63
2022/05/03 07:35:35;;;;;;;12.73;4.90;;;9.90;99.90;;;;;;5049546;28;20045;-63
2022/05/03 07:38:01;;;;;;;18.08;4.22;;;9.90;99.90;;;;;;5049376;28;20048;-63
2022/05/03 07:40:28;;;;;;;10.90;4.35;;;10.00;99.90;;;;;;5049679;28;20043;-63
2022/05/03 07:42:54;;;;;;;8.88;3.38;;;9.90;99.90;;;;;;5042492;28;20049;-63
2022/05/03 07:45:19;;;;;;;16.63;4.00;;;10.10;99.90;;;;;;5046956;28;20049;-63
2022/05/03 07:47:45;;;;;;;10.82;3.38;;;10.20;99.90;;;;;;5050015;28;20049;-63
2022/05/03 07:50:11;;;;;;;15.60;4.20;;;10.20;99.90;;;;;;5050809;28;20102;-62
2022/05/03 07:52:37;;;;;;;13.45;4.93;;;10.30;99.90;;;;;;5049204;28;20041;-63
2022/05/03 07:55:06;;;;;;;18.60;4.93;;;10.30;99.90;;;;;;5051326;28;20047;-63
2022/05/03 07:57:32;;;;;;;14.23;4.55;;;10.40;99.90;;;;;;5050780;28;20724;-63
2022/05/03 07:59:58;;;;;;;16.80;4.07;;;10.40;99.90;;;;;;5049501;28;20045;-63
2022/05/03 08:02:25;;;;;;;12.25;3.45;;;10.40;99.90;;;;;;5049118;28;20044;-62
2022/05/03 08:04:52;;;;;;;10.43;3.38;;;10.50;99.90;;;;;;5049440;28;20056;-63
2022/05/03 08:07:18;;;;;;;9.73;3.63;;;10.50;99.90;;;;;;5049288;28;20048;-63
2022/05/03 08:09:45;;;;;;;14.55;4.13;;;10.50;99.90;;;;;;5049550;28;20056;-63
2022/05/03 08:12:12;;;;;;;10.10;3.50;;;10.60;99.90;;;;;;5049539;28;20045;-63
2022/05/03 08:14:37;;;;;;;12.40;4.35;;;10.60;99.90;;;;;;5049918;28;20029;-63
2022/05/03 08:17:04;;;;;;;13.50;3.58;;;10.70;99.90;;;;;;5048784;28;20045;-63
2022/05/03 08:19:30;;;;;;;12.27;3.70;;;10.70;99.90;;;;;;5048260;28;20048;-64
2022/05/03 08:21:56;;;;;;;9.90;3.60;;;10.70;99.90;;;;;;5047627;28;20485;-63
2022/05/03 08:24:23;;;;;;;14.27;4.05;;;10.70;99.90;;;;;;5048351;28;20067;-63
2022/05/03 08:26:48;;;;;;;11.30;3.53;;;10.90;99.90;;;;;;5046086;28;20056;-63
2022/05/03 08:29:15;;;;;;;12.05;3.90;;;10.70;99.90;;;;;;5031855;28;20513;-63
2022/05/03 08:31:41;;;;;;;10.98;4.28;;;10.70;99.90;;;;;;5049406;28;20036;-63
2022/05/03 08:34:07;;;;;;;12.70;4.93;;;11.50;99.90;;;;;;5046436;28;20064;-63
2022/05/03 08:36:33;;;;;;;13.93;3.42;;;10.80;99.90;;;;;;5048467;28;20534;-63
2022/05/03 08:42:03;;;;;;;10.43;3.35;;;10.50;99.90;;;;;;5041180;28;20056;-63
2022/05/03 08:44:30;;;;;;;7.95;2.58;;;10.80;99.90;;;;;;5031126;28;20044;-63
2022/05/03 08:46:57;;;;;;;9.00;2.72;;;10.90;99.90;;;;;;5051839;28;20045;-63
2022/05/03 08:49:27;;;;;;;11.00;3.15;;;11.00;99.90;;;;;;5050279;28;20044;-63
2022/05/03 08:51:53;;;;;;;12.38;3.30;;;11.10;99.90;;;;;;5051133;28;20041;-63
2022/05/03 08:54:20;;;;;;;10.30;3.10;;;11.20;99.90;;;;;;5052510;28;20045;-61
2022/05/03 08:56:47;;;;;;;10.23;3.13;;;10.80;99.90;;;;;;5050672;28;20401;-64
2022/05/03 08:59:14;;;;;;;10.80;3.35;;;10.80;99.90;;;;;;5051115;28;20101;-64
2022/05/03 09:01:40;;;;;;;9.32;3.58;;;11.40;99.90;;;;;;5040031;28;20048;-64
2022/05/03 09:04:09;;;;;;;13.00;3.35;;;11.60;99.90;;;;;;5037770;28;20049;-63
2022/05/03 09:06:42;;;;;;;10.07;3.33;;;11.80;99.90;;;;;;5049680;28;20194;-63
2022/05/03 09:09:16;;;;;;;10.18;3.70;;;11.60;99.90;;;;;;5050514;28;20119;-64
2022/05/03 09:11:47;;;;;;;10.73;3.28;;;12.50;99.90;;;;;;5051184;28;20052;-64
2022/05/03 09:14:37;;;;;;;11.25;2.97;;;12.20;99.90;;;;;;5051999;28;20044;-63
2022/05/03 09:17:03;;;;;;;15.63;3.95;;;11.40;99.90;;;;;;5048640;28;20057;-63
2022/05/03 09:19:29;;;;;;;9.00;3.30;;;11.40;99.90;;;;;;5034382;28;20047;-63
2022/05/03 09:25:02;;;;;;;12.05;3.20;;;11.60;99.90;;;;;;5051091;28;20512;-64
2022/05/03 09:27:28;;;;;;;7.70;3.03;;;11.50;99.90;;;;;;5032130;28;20071;-62
2022/05/03 09:30:10;;;;;;;10.15;2.88;;;11.50;99.90;;;;;;5030155;28;20068;-63
2022/05/03 09:32:43;;;;;;;13.57;3.15;;;11.60;99.90;;;;;;5031803;28;20041;-63
2022/05/03 09:35:31;;;;;;;8.93;3.40;;;11.40;99.90;;;;;;5031152;28;20037;-63
2022/05/03 09:37:57;;;;;;;11.18;3.00;;;11.70;99.90;;;;;;5030411;28;20384;-63
2022/05/03 09:40:23;;;;;;;11.77;3.33;;;11.60;99.90;;;;;;5043336;28;20044;-63
2022/05/03 09:42:54;;;;;;;9.98;3.40;;;11.60;99.90;;;;;;5051076;28;20120;-64
2022/05/03 09:45:24;;;;;;;9.70;2.53;;;12.30;99.90;;;;;;5049742;28;20044;-64
2022/05/03 09:47:58;;;;;;;13.38;3.10;;;11.80;99.90;;;;;;5051950;28;20044;-63
2022/05/03 09:50:31;;;;;;;7.72;2.50;;;11.80;99.90;;;;;;5047167;28;20382;-64
2022/05/03 09:52:57;;;;;;;10.27;3.72;;;11.90;99.90;;;;;;5034292;28;20045;-62
2022/05/03 09:55:32;;;;;;;6.55;2.40;;;11.90;99.90;;;;;;5035831;28;20029;-62
2022/05/03 09:58:02;;;;;;;10.40;3.80;;;12.00;99.90;;;;;;5035527;28;20494;-62
2022/05/03 10:00:31;;;;;;;11.18;3.83;;;12.00;99.90;;;;;;5036311;28;20066;-63
2022/05/03 10:02:59;;;;;;;11.02;3.10;;;12.10;99.90;;;;;;5054814;28;20045;-63
2022/05/03 10:05:25;;;;;;;9.88;2.22;;;12.20;99.90;;;;;;5053678;28;20248;-63
2022/05/03 10:07:52;;;;;;;9.00;2.70;;;12.10;99.90;;;;;;5054354;28;20040;-63
2022/05/03 10:10:19;;;;;;;8.00;3.53;;;11.40;99.90;;;;;;5054514;28;20382;-62
2022/05/03 10:12:47;;;;;;;8.77;2.28;;;11.90;99.90;;;;;;5053357;28;20049;-63
2022/05/03 10:20:35;;;;;;;10.63;2.80;;;11.60;99.90;;;;;;5054207;28;20045;-63
2022/05/03 10:20:55;;;;;;;6.68;2.00;;;12.00;99.90;;;;;;5053527;28;20045;-63
2022/05/03 10:23:30;;;;;;;9.65;3.00;;;12.10;99.90;;;;;;5054818;28;20166;-63
2022/05/03 10:25:57;;;;;;;;;;;11.80;99.90;;;;;;5055800;28;20045;-63
2022/05/03 10:28:23;;;;;;;8.93;2.60;;;12.00;99.90;;;;;;5053585;28;20373;-63
2022/05/03 10:31:04;;;;;;;5.78;2.65;;;12.50;99.90;;;;;;5053568;28;20051;-63
2022/05/03 10:33:30;;;;;;;8.52;2.22;;;12.10;99.90;;;;;;5054040;28;20045;-61
2022/05/03 10:35:56;;;;;;;6.35;2.30;;;12.30;99.90;;;;;;5055079;28;20397;-63
2022/05/03 10:38:39;;;;;;;5.50;2.25;;;12.10;99.90;;;;;;5054145;28;20053;-63
2022/05/03 10:41:05;;;;;;;11.48;2.67;;;12.20;99.90;;;;;;5046971;28;20076;-64
2022/05/03 10:43:33;;;;;;;11.05;2.33;;;12.10;99.90;;;;;;5051005;28;20080;-63
2022/05/03 10:46:10;;;;;;;5.43;2.13;;;12.20;99.90;;;;;;5051350;28;20049;-63
2022/05/03 10:48:37;;;;;;;7.82;2.40;;;12.30;99.90;;;;;;5051444;28;20053;-63
2022/05/03 10:51:06;;;;;;;7.47;2.97;;;;;;;;;;5052019;28;20045;-63
2022/05/03 10:53:33;;;;;;;7.70;2.65;;;;;;;;;;5051581;28;20044;-65
2022/05/03 10:56:16;;;;;;;8.13;2.45;;;;;;;;;;5048736;28;20041;-65
2022/05/03 10:58:43;;;;;;;6.50;2.25;;;;;;;;;;5052257;28;20088;-62
2022/05/03 11:01:20;;;;;;;6.68;1.80;;;;;;;;;;5051902;28;20048;-63
2022/05/03 11:03:52;;;;;;;7.55;2.40;;;;;;;;;;5050694;28;20775;-63
2022/05/03 11:06:25;;;;;;;7.05;2.55;;;;;;;;;;5051386;28;20045;-63
2022/05/03 11:14:05;;;;;;;8.35;2.00;;;;;;;;;;5049353;28;20037;-64
2022/05/03 11:16:34;;;;;;;7.72;2.30;;;;;;;;;;5049039;28;20059;-64
2022/05/03 11:19:11;;;;;;;13.02;2.42;;;;;;;;;;5050768;28;20049;-64
2022/05/03 11:21:37;;;;;;;6.43;2.10;;;;;;;;;;5049091;28;20083;-64
2022/05/03 11:24:03;;;;;;;7.13;2.22;;;;;;;;;;5048088;28;20075;-62
2022/05/03 11:26:30;;;;;;;8.30;1.95;;;;;;;;;;5051288;28;20120;-62
2022/05/03 11:29:01;;;;;;;9.32;2.00;;;;;;;;;;5052542;28;20525;-62
2022/05/03 11:31:28;;;;;;;7.13;1.90;;;;;;;;;;5052215;28;20048;-62
2022/05/03 11:33:56;;;;;;;10.05;2.58;;;;;;;;;;5052930;28;20494;-63
2022/05/03 11:36:23;;;;;;;12.65;2.95;;;;;;;;;;5053144;28;20044;-63
2022/05/03 11:38:50;;;;;;;10.25;1.98;;;;;;;;;;5054061;28;20045;-63
2022/05/03 11:41:20;;;;;;;7.15;2.78;;;;;;;;;;5053250;28;20049;-63
2022/05/03 11:43:47;;;;;;;7.85;2.40;;;;;;;;;;5051895;28;20045;-64
2022/05/03 11:46:15;;;;;;;9.40;2.28;;;;;;;;;;5052531;28;20052;-64
2022/05/03 11:48:41;;;;;;;5.35;2.30;;;;;;;;;;5052162;28;20045;-64
2022/05/03 11:56:38;;;;;;;10.07;2.30;;;12.90;99.90;;;;;;5052315;28;20395;-63
2022/05/03 11:59:05;;;;;;;8.18;2.80;;;12.80;99.90;;;;;;5051451;28;20039;-63
2022/05/03 12:01:34;;;;;;;7.00;1.88;;;12.80;99.90;;;;;;5051661;28;20110;-63
2022/05/03 12:04:02;;;;;;;9.18;2.83;;;13.20;99.90;;;;;;5052395;28;20090;-63
2022/05/03 12:06:54;;;;;;;8.50;2.92;;;12.80;99.90;;;;;;5051354;28;20048;-63
2022/05/03 12:09:20;;;;;;;8.88;2.60;;;12.70;99.90;;;;;;5051252;28;20166;-64
2022/05/03 12:14:42;;;;;;;5.25;2.40;;;12.40;99.90;;;;;;5052006;28;20375;-65
2022/05/03 12:17:08;;;;;;;9.88;2.25;;;12.10;99.90;;;;;;5047604;28;20152;-64
2022/05/03 12:19:35;;;;;;;6.35;2.40;;;12.40;99.90;;;;;;5049131;28;20048;-65
2022/05/03 12:22:12;;;;;;;8.63;2.35;;;12.50;99.90;;;;;;5052869;28;20049;-65
2022/05/03 12:24:41;;;;;;;9.07;2.80;;;12.40;99.90;;;;;;5051820;28;20124;-64
2022/05/03 12:27:11;;;;;;;11.43;2.92;;;12.40;99.90;;;;;;5052074;28;20124;-66
2022/05/03 12:29:44;;;;;;;8.40;3.83;;;12.60;99.90;;;;;;5052303;28;20093;-66
2022/05/03 12:32:18;;;;;;;6.10;2.13;;;12.60;99.90;;;;;;5052964;28;20058;-66
2022/05/03 12:35:02;;;;;;;7.28;2.45;;;12.50;99.90;;;;;;5046831;28;20029;-66
2022/05/03 12:37:29;;;;;;;7.57;2.45;;;12.60;99.90;;;;;;5049531;28;20040;-66
2022/05/03 12:40:01;;;;;;;9.82;2.30;;;12.70;99.90;;;;;;5049655;28;20493;-65
2022/05/03 12:42:27;;;;;;;11.43;3.00;;;12.70;99.90;;;;;;5052599;28;20037;-65
2022/05/03 12:44:57;;;;;;;7.90;2.42;;;12.80;99.90;;;;;;5050627;28;20087;-65
2022/05/03 12:47:24;;;;;;;7.68;2.75;;;12.80;99.90;;;;;;5049972;28;20044;-64
2022/05/03 12:49:50;;;;;;;7.43;2.60;;;13.00;99.90;;;;;;5052149;28;20482;-64
2022/05/03 12:52:16;;;;;;;7.68;2.35;;;12.90;99.90;;;;;;5051334;28;20035;-64
2022/05/03 12:54:43;;;;;;;13.13;2.45;;;12.80;99.90;;;;;;5050013;28;20051;-63
2022/05/03 12:59:55;;;;;;;9.15;2.72;;;;;;;;;;5050666;28;20041;-64
2022/05/03 13:02:22;;;;;;;8.23;2.67;;;;;;;;;;5049774;28;20122;-63
2022/05/03 13:04:48;;;;;;;11.07;3.35;;;;;;;;;;5050186;28;20076;-63
2022/05/03 13:07:14;;;;;;;6.53;2.30;;;;;;;;;;5051490;28;20048;-63
2022/05/03 13:09:41;;;;;;;7.90;2.60;;;;;;;;;;5051136;28;20094;-63
2022/05/03 13:12:07;;;;;;;9.65;2.50;;;;;;;;;;5052588;28;20128;-63
2022/05/03 13:14:33;;;;;;;9.43;2.70;;;;;;;;;;5051532;28;20058;-63
2022/05/03 13:16:59;;;;;;;7.57;2.58;;;;;;;;;;5049912;28;20503;-64
2022/05/03 13:19:27;;;;;;;7.60;2.50;;;;;;;;;;5050349;28;20060;-63
2022/05/03 13:21:56;;;;;;;11.48;2.95;;;13.60;97.70;;;;;;5050460;28;20436;-63
2022/05/03 13:24:22;;;;;;;10.43;3.03;;;13.70;98.50;;;;;;5051400;28;20115;-63
2022/05/03 13:26:48;;;;;;;8.65;2.42;;;13.50;98.20;;;;;;5050843;28;20093;-63
2022/05/03 13:29:16;;;;;;;8.60;2.47;;;13.60;98.40;;;;;;5050894;28;20163;-63
2022/05/03 13:31:43;;;;;;;10.23;2.30;;;13.80;99.10;;;;;;5030617;28;20214;-62
2022/05/03 13:34:10;;;;;;;9.02;2.45;;;13.60;98.40;;;;;;5033718;28;20501;-63
2022/05/03 13:42:06;;;;;;;6.45;2.38;;;13.20;99.30;;;;;;5051051;28;20049;-63
2022/05/03 13:44:33;;;;;;;6.78;2.22;;;13.20;99.70;;;;;;5048898;28;20045;-63
2022/05/03 13:46:59;;;;;;;10.13;2.72;;;14.30;99.90;;;;;;5050792;28;20097;-63
2022/05/03 13:49:25;;;;;;;8.23;2.20;;;13.30;99.60;;;;;;5051505;28;20045;-63
2022/05/03 13:51:50;;;;;;;12.23;2.72;;;13.40;99.20;;;;;;5050973;28;20037;-63
2022/05/03 13:54:16;;;;;;;8.10;2.83;;;13.50;99.10;;;;;;5051258;28;20045;-63